Time;durP1;ratioP1;P1;durP2;ratioP2;P2;SDS_P1;SDS_P2;PMS_P1;PMS_P2;Temp;Humidity;BMP_temperature;BMP_pressure;BME280_temperature;BME280_humidity;BME280_pressure;Samples;Min_cycle;Max_cycle;Signal;HPM_P1;HPM_P2
2023/08/29 00:02:30;;;;;;;13.75;13.35;;;16.00;1.10;;;;;;4884175;29;20483;-85
2023/08/29 00:05:16;;;;;;;14.97;14.43;;;16.10;90.20;;;;;;4885069;29;20212;-85
2023/08/29 00:08:13;;;;;;;14.17;13.77;;;16.10;90.80;;;;;;4885194;29;20486;-85
2023/08/29 00:10:59;;;;;;;14.60;14.10;;;16.10;1.00;;;;;;4882297;29;20522;-85
2023/08/29 00:13:36;;;;;;;14.63;13.97;;;16.10;99.90;;;;;;4898863;29;20491;-85
2023/08/29 00:16:15;;;;;;;14.33;13.73;;;16.10;99.90;;;;;;4886928;29;20472;-85
2023/08/29 00:18:59;;;;;;;14.70;13.90;;;16.00;97.50;;;;;;4886676;29;20481;-85
2023/08/29 00:21:30;;;;;;;14.17;13.67;;;16.10;99.90;;;;;;4900216;29;20539;-86
2023/08/29 00:24:32;;;;;;;15.10;14.60;;;16.00;99.90;;;;;;4882012;29;20467;-87
2023/08/29 00:27:17;;;;;;;14.77;14.27;;;16.00;99.90;;;;;;4882411;29;21079;-86
2023/08/29 00:29:53;;;;;;;14.40;13.90;;;16.10;99.90;;;;;;4887588;29;21133;-85
2023/08/29 00:32:26;;;;;;;14.27;13.77;;;16.00;99.90;;;;;;4886930;29;20916;-85
2023/08/29 00:34:58;;;;;;;14.97;14.47;;;16.00;99.90;;;;;;4885640;29;20458;-86
2023/08/29 00:37:48;;;;;;;13.90;13.40;;;16.00;99.90;;;;;;4899699;29;20468;-86
2023/08/29 00:40:41;;;;;;;14.50;14.00;;;16.00;99.90;;;;;;4885459;29;20998;-86
2023/08/29 00:43:15;;;;;;;14.37;13.87;;;16.00;99.90;;;;;;4888162;29;20911;-85
2023/08/29 00:45:52;;;;;;;14.63;14.13;;;16.00;99.90;;;;;;4886571;29;20481;-86
2023/08/29 00:48:37;;;;;;;13.50;13.10;;;16.00;99.90;;;;;;4887948;29;20458;-86
2023/08/29 00:51:12;;;;;;;14.40;13.80;;;16.00;99.90;;;;;;4887102;29;20474;-86
2023/08/29 00:53:46;;;;;;;14.20;13.70;;;15.90;99.90;;;;;;4884338;29;20471;-84
2023/08/29 00:56:38;;;;;;;14.10;13.60;;;15.90;99.90;;;;;;4885778;29;20477;-84
2023/08/29 00:59:12;;;;;;;15.07;14.00;;;16.00;99.90;;;;;;4885922;29;20496;-84
2023/08/29 01:01:47;;;;;;;14.70;13.90;;;15.90;99.90;;;;;;4886372;29;20992;-84
2023/08/29 01:04:38;;;;;;;14.00;13.53;;;15.90;99.90;;;;;;4883949;29;20229;-84
2023/08/29 01:07:23;;;;;;;14.17;13.67;;;15.90;1.00;;;;;;4888235;29;20467;-84
2023/08/29 01:10:01;;;;;;;13.80;13.40;;;15.90;99.90;;;;;;4883214;29;20960;-84
2023/08/29 01:12:45;;;;;;;13.63;13.13;;;15.90;99.90;;;;;;4889245;29;20491;-83
2023/08/29 01:15:27;;;;;;;14.53;14.03;;;15.90;99.90;;;;;;4882445;29;20532;-83
2023/08/29 01:18:05;;;;;;;14.87;14.17;;;15.90;1.00;;;;;;4885862;29;20455;-83
2023/08/29 01:20:45;;;;;;;14.07;13.57;;;15.90;1.00;;;;;;4880729;29;20539;-83
2023/08/29 01:23:31;;;;;;;14.43;13.83;;;15.90;1.00;;;;;;4881412;29;20208;-83
2023/08/29 01:26:15;;;;;;;14.45;13.82;;;15.90;99.90;;;;;;4884626;29;20474;-84
2023/08/29 01:28:51;;;;;;;14.40;13.90;;;15.90;99.90;;;;;;4885086;29;20801;-84
2023/08/29 01:31:29;;;;;;;14.20;13.80;;;16.00;99.90;;;;;;4883689;29;20498;-84
2023/08/29 01:34:21;;;;;;;14.27;13.87;;;16.00;99.90;;;;;;4886573;29;20240;-84
2023/08/29 01:36:59;;;;;;;14.30;13.77;;;15.90;1.00;;;;;;4885044;29;20478;-83
2023/08/29 01:39:35;;;;;;;14.30;13.80;;;15.90;99.90;;;;;;4883058;29;20487;-84
2023/08/29 01:42:12;;;;;;;14.67;14.07;;;15.90;99.90;;;;;;4887862;29;21014;-85
2023/08/29 01:44:53;;;;;;;14.30;13.80;;;15.90;99.90;;;;;;4885356;29;20473;-85
2023/08/29 01:47:38;;;;;;;14.70;14.10;;;15.90;1.00;;;;;;4883621;29;20475;-83
2023/08/29 01:50:10;;;;;;;14.27;13.77;;;15.90;99.90;;;;;;4885896;29;20558;-86
2023/08/29 01:52:49;;;;;;;15.00;14.50;;;15.90;1.00;;;;;;4886155;29;20518;-85
2023/08/29 01:55:35;;;;;;;14.40;13.90;;;15.90;99.90;;;;;;4885786;29;20804;-86
2023/08/29 01:58:22;;;;;;;15.70;14.90;;;15.80;99.90;;;;;;4895953;29;20223;-87
2023/08/29 02:00:58;;;;;;;14.83;14.33;;;15.90;99.90;;;;;;4885756;29;20496;-87
2023/08/29 02:03:55;;;;;;;14.70;14.20;;;15.90;99.90;;;;;;4884872;29;20474;-85
2023/08/29 02:06:35;;;;;;;15.10;14.57;;;15.90;99.90;;;;;;4884251;29;20566;-85
2023/08/29 02:09:21;;;;;;;15.53;14.93;;;15.80;99.90;;;;;;4884205;29;20538;-84
2023/08/29 02:11:58;;;;;;;14.80;14.20;;;15.80;99.90;;;;;;4881288;29;20485;-84
2023/08/29 02:14:35;;;;;;;14.70;14.20;;;15.90;99.90;;;;;;4884230;29;20459;-85
2023/08/29 02:17:17;;;;;;;15.30;14.60;;;15.90;99.90;;;;;;4877763;29;20462;-85
2023/08/29 02:19:54;;;;;;;15.47;14.80;;;15.90;99.90;;;;;;4884950;29;20223;-84
2023/08/29 02:22:37;;;;;;;15.17;14.50;;;15.90;99.90;;;;;;4877316;29;21033;-82
2023/08/29 02:25:10;;;;;;;14.57;14.07;;;16.00;99.90;;;;;;4881790;29;20463;-83
2023/08/29 02:27:39;;;;;;;14.70;14.20;;;16.00;99.90;;;;;;4881941;29;20463;-83
2023/08/29 02:30:19;;;;;;;15.20;14.60;;;15.90;99.90;;;;;;4879253;29;20489;-85
2023/08/29 02:32:55;;;;;;;15.60;14.90;;;15.90;1.00;;;;;;4885861;29;20484;-85
2023/08/29 02:35:34;;;;;;;15.20;14.53;;;15.90;99.90;;;;;;4901143;29;20460;-85
2023/08/29 02:38:10;;;;;;;15.40;14.80;;;15.90;99.90;;;;;;4882751;29;20471;-86
2023/08/29 02:40:46;;;;;;;15.67;15.07;;;15.90;99.90;;;;;;4881310;29;20222;-85
2023/08/29 02:43:18;;;;;;;15.40;14.70;;;16.00;99.90;;;;;;4886238;29;20469;-85
2023/08/29 02:45:57;;;;;;;14.93;14.47;;;16.00;99.90;;;;;;4886177;29;20472;-87
2023/08/29 02:48:33;;;;;;;15.70;15.10;;;16.00;1.00;;;;;;4885330;29;21266;-86
2023/08/29 02:51:06;;;;;;;16.83;15.90;;;16.00;99.90;;;;;;4883004;29;20485;-85
2023/08/29 02:53:44;;;;;;;15.80;15.13;;;16.00;99.90;;;;;;4886170;29;20472;-85
2023/08/29 02:56:23;;;;;;;16.03;15.33;;;16.00;99.90;;;;;;4884664;29;20516;-85
2023/08/29 02:59:04;;;;;;;16.23;15.63;;;16.00;99.90;;;;;;4883703;29;21047;-85
2023/08/29 03:01:48;;;;;;;17.20;16.40;;;16.00;99.90;;;;;;4877931;29;20483;-85
2023/08/29 03:04:19;;;;;;;16.63;15.80;;;16.00;99.90;;;;;;4882493;29;20951;-84
2023/08/29 03:09:54;;;;;;;16.17;15.57;;;15.90;99.90;;;;;;4881536;29;20453;-85
2023/08/29 03:12:38;;;;;;;16.60;15.90;;;16.00;99.90;;;;;;4883278;29;21191;-86
2023/08/29 03:15:12;;;;;;;16.70;16.00;;;16.00;99.90;;;;;;4882028;29;20492;-86
2023/08/29 03:18:19;;;;;;;17.30;16.50;;;16.00;99.90;;;;;;4879856;29;20481;-85
2023/08/29 03:20:59;;;;;;;17.97;17.00;;;16.00;1.00;;;;;;4880957;29;20870;-85
2023/08/29 03:23:43;;;;;;;17.00;16.30;;;16.00;99.90;;;;;;4885511;29;21236;-85
2023/08/29 03:26:32;;;;;;;17.00;16.30;;;16.10;99.90;;;;;;4886814;29;20216;-85
2023/08/29 03:29:28;;;;;;;16.90;16.10;;;16.00;99.90;;;;;;4882743;29;20468;-85
2023/08/29 03:32:19;;;;;;;17.97;17.17;;;16.00;99.90;;;;;;4884711;29;20506;-85
2023/08/29 03:35:12;;;;;;;16.93;16.20;;;16.00;99.90;;;;;;4884548;29;20507;-85
2023/08/29 03:37:49;;;;;;;18.07;17.17;;;15.90;99.90;;;;;;4883730;29;20468;-85
2023/08/29 03:40:33;;;;;;;17.53;16.73;;;15.90;1.00;;;;;;4883303;29;20479;-85
2023/08/29 03:43:11;;;;;;;18.37;17.27;;;15.90;99.90;;;;;;4889503;29;20455;-84
2023/08/29 03:45:44;;;;;;;18.55;17.65;;;15.90;1.00;;;;;;4883742;29;20466;-84
2023/08/29 03:48:24;;;;;;;18.10;17.30;;;15.90;1.00;;;;;;4881431;29;20260;-83
2023/08/29 03:51:17;;;;;;;18.83;18.00;;;15.90;1.00;;;;;;4884757;29;20471;-84
2023/08/29 03:53:54;;;;;;;18.40;17.40;;;15.90;1.00;;;;;;4879942;29;20463;-85
2023/08/29 03:56:31;;;;;;;19.33;18.20;;;15.90;1.00;;;;;;4883072;29;20463;-84
2023/08/29 03:59:04;;;;;;;18.80;17.90;;;15.90;1.00;;;;;;4883698;29;20470;-84
2023/08/29 04:01:34;;;;;;;18.73;17.93;;;15.90;1.00;;;;;;4881523;29;20500;-86
2023/08/29 04:04:05;;;;;;;19.00;17.90;;;15.90;90.30;;;;;;4884282;29;20475;-86
2023/08/29 04:06:55;;;;;;;20.05;18.85;;;15.90;5.00;;;;;;4883590;29;20547;-86
2023/08/29 04:09:31;;;;;;;19.87;18.70;;;15.90;1.00;;;;;;4884779;29;20211;-87
2023/08/29 04:12:12;;;;;;;20.13;19.23;;;15.90;1.00;;;;;;4884584;29;20475;-87
2023/08/29 04:14:50;;;;;;;21.00;20.00;;;16.00;67.60;;;;;;4891104;29;20469;-86
2023/08/29 04:17:29;;;;;;;21.77;20.27;;;16.00;89.90;;;;;;4898417;29;20471;-85
2023/08/29 04:20:09;;;;;;;21.57;20.40;;;15.90;99.90;;;;;;4886831;29;20455;-86
2023/08/29 04:22:47;;;;;;;20.40;19.40;;;15.90;99.90;;;;;;4886863;29;20487;-85
2023/08/29 04:25:26;;;;;;;20.97;19.87;;;15.90;99.90;;;;;;4887032;29;20483;-86
2023/08/29 04:28:01;;;;;;;21.40;20.20;;;15.90;1.00;;;;;;4887101;29;20467;-85
2023/08/29 04:30:42;;;;;;;21.13;20.00;;;15.90;99.90;;;;;;4884494;29;20463;-86
2023/08/29 04:33:27;;;;;;;22.20;21.07;;;15.90;99.90;;;;;;4902420;29;20907;-85
2023/08/29 04:35:58;;;;;;;21.10;20.00;;;15.90;99.90;;;;;;4885680;29;20450;-86
2023/08/29 04:38:34;;;;;;;22.20;20.87;;;15.80;99.90;;;;;;4886289;29;20550;-84
2023/08/29 04:41:05;;;;;;;21.63;20.53;;;15.80;99.90;;;;;;4887068;29;21303;-86
2023/08/29 04:43:40;;;;;;;22.67;21.47;;;15.90;99.90;;;;;;4888006;29;20543;-86
2023/08/29 04:46:19;;;;;;;21.70;20.57;;;15.90;99.90;;;;;;4884126;29;20495;-85
2023/08/29 04:49:04;;;;;;;21.63;20.50;;;15.80;1.00;;;;;;4902478;29;20474;-85
2023/08/29 04:51:55;;;;;;;22.20;21.07;;;15.80;1.00;;;;;;4891007;29;20475;-86
2023/08/29 04:54:40;;;;;;;21.90;20.60;;;15.90;1.00;;;;;;4889342;29;20462;-87
2023/08/29 04:58:00;;;;;;;21.63;20.53;;;15.80;1.00;;;;;;4868511;29;20926;-86
2023/08/29 05:00:35;;;;;;;23.30;21.90;;;15.90;99.90;;;;;;4887790;29;21063;-85
2023/08/29 05:03:07;;;;;;;21.80;20.50;;;15.80;1.00;;;;;;4887668;29;20558;-87
2023/08/29 05:05:51;;;;;;;22.70;21.50;;;15.90;1.00;;;;;;4892134;29;20473;-84
2023/08/29 05:08:27;;;;;;;22.67;21.47;;;15.90;1.00;;;;;;4891712;29;20513;-85
2023/08/29 05:11:09;;;;;;;22.30;21.10;;;15.90;60.90;;;;;;4886634;29;20554;-85
2023/08/29 05:13:47;;;;;;;23.27;21.97;;;15.80;11.00;;;;;;4891909;29;20491;-86
2023/08/29 05:16:32;;;;;;;22.40;21.20;;;15.80;99.90;;;;;;4893498;29;20509;-86
2023/08/29 05:19:07;;;;;;;22.70;21.53;;;15.90;99.90;;;;;;4893954;29;20475;-86
2023/08/29 05:21:39;;;;;;;23.13;21.83;;;15.90;1.00;;;;;;4886096;29;20557;-86
2023/08/29 05:24:21;;;;;;;23.63;22.33;;;15.90;1.00;;;;;;4887321;29;20519;-87
2023/08/29 05:27:08;;;;;;;22.93;21.70;;;15.90;99.90;;;;;;4895848;29;21025;-86
2023/08/29 05:29:41;;;;;;;21.83;20.63;;;15.90;99.90;;;;;;4887677;29;20469;-86
2023/08/29 05:32:25;;;;;;;23.40;22.00;;;15.90;99.90;;;;;;4884875;29;21010;-86
2023/08/29 05:35:16;;;;;;;24.43;22.80;;;15.90;99.90;;;;;;4886712;29;20547;-80
2023/08/29 05:38:03;;;;;;;22.30;21.10;;;15.80;58.10;;;;;;4900643;29;20459;-83
2023/08/29 05:41:04;;;;;;;23.63;22.23;;;15.80;1.00;;;;;;4897715;29;20263;-80
2023/08/29 05:43:35;;;;;;;23.20;21.70;;;15.70;99.90;;;;;;4885033;29;20539;-84
2023/08/29 05:46:34;;;;;;;24.20;22.87;;;15.80;99.90;;;;;;4885075;29;20850;-84
2023/08/29 05:49:34;;;;;;;22.57;21.37;;;15.90;1.00;;;;;;4884486;29;20462;-85
2023/08/29 05:55:37;;;;;;;24.30;22.70;;;15.90;99.90;;;;;;4884854;29;20448;-85
2023/08/29 05:58:24;;;;;;;23.27;21.87;;;15.90;1.00;;;;;;4883661;29;20257;-83
2023/08/29 06:01:27;;;;;;;23.10;21.80;;;16.00;99.90;;;;;;4884941;29;20579;-83
2023/08/29 06:04:25;;;;;;;23.53;22.13;;;16.00;99.90;;;;;;4870128;29;20531;-85
2023/08/29 06:07:23;;;;;;;23.47;22.17;;;16.00;99.90;;;;;;4886052;29;20563;-85
2023/08/29 06:10:11;;;;;;;23.67;22.20;;;16.00;1.00;;;;;;4884622;29;20475;-85
2023/08/29 06:13:07;;;;;;;24.13;22.73;;;16.10;99.90;;;;;;4890623;29;20546;-84
2023/08/29 06:15:58;;;;;;;22.90;21.60;;;16.00;1.00;;;;;;4889916;29;20253;-84
2023/08/29 06:18:43;;;;;;;25.40;23.77;;;16.10;92.20;;;;;;4888537;29;20456;-85
2023/08/29 06:21:47;;;;;;;23.47;22.27;;;16.10;1.00;;;;;;4886798;29;20498;-85
2023/08/29 06:24:21;;;;;;;22.30;21.10;;;16.00;1.00;;;;;;4884384;29;21054;-84
2023/08/29 06:27:10;;;;;;;24.63;22.93;;;16.10;1.00;;;;;;4885612;29;21155;-85
2023/08/29 06:29:52;;;;;;;23.57;21.93;;;16.10;1.00;;;;;;4885534;29;20883;-84
2023/08/29 06:32:30;;;;;;;23.57;22.20;;;16.10;1.00;;;;;;4886322;29;20485;-85
2023/08/29 06:35:18;;;;;;;22.00;20.80;;;16.10;1.00;;;;;;4886842;29;20610;-84
2023/08/29 06:38:02;;;;;;;23.08;21.88;;;16.10;1.00;;;;;;4897584;29;20809;-83
2023/08/29 06:40:44;;;;;;;22.83;21.60;;;16.10;1.00;;;;;;4900114;29;20235;-86
2023/08/29 06:43:15;;;;;;;23.33;22.10;;;16.10;99.90;;;;;;4893115;29;20523;-84
2023/08/29 06:45:59;;;;;;;23.77;22.37;;;16.00;99.90;;;;;;4884258;29;21013;-84
2023/08/29 06:48:57;;;;;;;21.33;20.13;;;16.10;99.90;;;;;;4882258;29;20560;-84
2023/08/29 06:51:39;;;;;;;22.47;21.30;;;16.00;1.00;;;;;;4884197;29;20587;-83
2023/08/29 06:54:20;;;;;;;24.17;22.67;;;16.10;61.00;;;;;;4882169;29;20600;-83
2023/08/29 06:57:00;;;;;;;23.33;21.93;;;16.10;27.90;;;;;;4883967;29;20468;-83
2023/08/29 06:59:45;;;;;;;22.57;21.27;;;16.00;99.90;;;;;;4884769;29;20517;-83
2023/08/29 07:02:40;;;;;;;21.97;20.83;;;16.10;99.90;;;;;;4885216;29;20588;-84
2023/08/29 07:05:51;;;;;;;22.20;20.80;;;16.10;99.90;;;;;;4883726;29;20466;-83
2023/08/29 07:08:47;;;;;;;22.23;21.10;;;16.10;99.90;;;;;;4884828;29;20456;-83
2023/08/29 07:11:56;;;;;;;22.00;20.80;;;16.10;99.90;;;;;;4884391;29;20565;-84
2023/08/29 07:14:49;;;;;;;21.47;20.47;;;16.20;99.90;;;;;;4887313;29;20829;-85
2023/08/29 07:17:57;;;;;;;22.43;21.03;;;16.10;99.90;;;;;;4887832;29;20471;-85
2023/08/29 07:24:21;;;;;;;22.17;21.10;;;16.10;1.00;;;;;;4885297;29;21008;-84
2023/08/29 07:26:58;;;;;;;21.33;20.30;;;16.10;99.90;;;;;;4887413;29;20489;-86
2023/08/29 07:29:57;;;;;;;21.70;20.70;;;16.10;99.90;;;;;;4886367;29;20964;-83
2023/08/29 07:32:36;;;;;;;23.87;21.60;;;16.10;1.00;;;;;;4883327;29;20526;-83
2023/08/29 07:35:17;;;;;;;21.97;20.87;;;16.10;99.90;;;;;;4888989;29;20468;-84
2023/08/29 07:38:01;;;;;;;22.45;21.15;;;16.10;1.00;;;;;;4886765;29;20957;-84
2023/08/29 07:40:47;;;;;;;22.50;21.30;;;16.10;1.00;;;;;;4886411;29;20872;-83
2023/08/29 07:43:24;;;;;;;21.97;20.67;;;16.20;36.20;;;;;;4885016;29;20478;-85
2023/08/29 07:46:04;;;;;;;22.77;21.67;;;16.20;62.60;;;;;;4886300;29;20483;-84
2023/08/29 07:48:51;;;;;;;21.80;20.70;;;16.20;99.90;;;;;;4890678;29;20556;-83
2023/08/29 07:51:45;;;;;;;21.70;20.60;;;16.30;99.90;;;;;;4887203;29;20484;-84
2023/08/29 07:54:19;;;;;;;23.70;22.10;;;16.20;99.90;;;;;;4886308;29;20805;-83
2023/08/29 07:57:05;;;;;;;22.40;21.00;;;16.20;99.90;;;;;;4887819;29;20906;-83
2023/08/29 07:59:40;;;;;;;22.47;21.27;;;16.20;99.90;;;;;;4888264;29;20893;-83
2023/08/29 08:02:20;;;;;;;22.43;21.23;;;16.20;99.90;;;;;;4888668;29;21366;-86
2023/08/29 08:04:56;;;;;;;21.90;20.90;;;16.30;99.90;;;;;;4887507;29;20470;-84
2023/08/29 08:07:43;;;;;;;22.77;21.67;;;16.20;1.00;;;;;;4891978;29;20884;-82
2023/08/29 08:10:23;;;;;;;22.07;21.07;;;16.30;2.10;;;;;;4883629;29;20470;-84
2023/08/29 08:13:09;;;;;;;23.53;22.23;;;16.40;1.00;;;;;;4881712;29;20454;-84
2023/08/29 08:15:50;;;;;;;23.75;22.55;;;16.30;99.90;;;;;;4888691;29;20467;-83
2023/08/29 08:18:27;;;;;;;22.67;21.57;;;16.40;99.90;;;;;;4904147;29;20298;-82
2023/08/29 08:21:07;;;;;;;25.80;24.30;;;16.40;24.80;;;;;;4885242;29;20490;-84
2023/08/29 08:23:44;;;;;;;23.90;22.67;;;16.40;99.90;;;;;;4885677;29;20585;-83
2023/08/29 08:26:39;;;;;;;24.63;23.37;;;16.40;99.90;;;;;;4888071;29;20977;-83
2023/08/29 08:29:42;;;;;;;24.40;23.00;;;16.30;1.00;;;;;;4884868;29;20557;-83
2023/08/29 08:32:29;;;;;;;24.08;22.60;;;16.30;1.00;;;;;;4900554;29;21231;-83
2023/08/29 08:35:03;;;;;;;23.60;22.40;;;16.30;99.90;;;;;;4889388;29;20210;-83
2023/08/29 08:37:47;;;;;;;23.80;22.50;;;16.40;1.00;;;;;;4885810;29;21090;-83
2023/08/29 08:40:30;;;;;;;24.20;22.90;;;16.40;43.70;;;;;;4888127;29;20470;-84
2023/08/29 08:43:13;;;;;;;24.20;22.80;;;16.40;1.00;;;;;;4885844;29;20765;-83
2023/08/29 08:45:52;;;;;;;24.80;23.50;;;16.40;44.60;;;;;;4890048;29;20469;-85
2023/08/29 08:48:24;;;;;;;24.63;23.23;;;16.50;99.90;;;;;;4885855;29;20467;-85
2023/08/29 08:51:05;;;;;;;23.57;22.40;;;16.50;1.00;;;;;;4885417;29;20933;-84
2023/08/29 08:53:58;;;;;;;25.03;23.70;;;16.50;99.90;;;;;;4900332;29;20555;-84
2023/08/29 08:56:40;;;;;;;24.73;23.23;;;16.50;99.90;;;;;;4886603;29;20489;-84
2023/08/29 08:59:19;;;;;;;24.00;22.60;;;16.50;43.60;;;;;;4882097;29;20464;-84
2023/08/29 09:02:33;;;;;;;24.27;22.67;;;16.50;1.00;;;;;;4882939;29;20862;-84
2023/08/29 09:05:28;;;;;;;24.95;23.65;;;16.50;99.90;;;;;;4885003;29;20474;-84
2023/08/29 09:08:13;;;;;;;25.53;23.90;;;16.60;99.90;;;;;;4885379;29;20753;-83
2023/08/29 09:10:55;;;;;;;24.97;23.33;;;16.60;99.90;;;;;;4887155;29;20469;-83
2023/08/29 09:13:39;;;;;;;25.37;23.77;;;16.60;1.00;;;;;;4887393;29;20527;-84
2023/08/29 09:16:33;;;;;;;24.23;23.03;;;16.60;1.00;;;;;;4884477;29;20486;-83
2023/08/29 09:22:31;;;;;;;24.90;23.50;;;16.70;1.00;;;;;;4877508;29;20479;-81
2023/08/29 09:25:09;;;;;;;24.47;23.00;;;16.70;1.00;;;;;;4881061;29;20228;-81
2023/08/29 09:27:44;;;;;;;24.70;23.30;;;16.70;99.90;;;;;;4883646;29;20539;-80
2023/08/29 09:30:32;;;;;;;25.00;23.60;;;16.80;1.00;;;;;;4881694;29;20300;-80
2023/08/29 09:33:08;;;;;;;23.17;22.10;;;16.80;1.00;;;;;;4877627;23;20879;-79
2023/08/29 09:35:44;;;;;;;24.63;23.23;;;16.80;1.00;;;;;;4867338;29;20536;-80
2023/08/29 09:38:33;;;;;;;23.77;22.47;;;16.90;44.70;;;;;;4868888;29;20462;-80
2023/08/29 09:41:21;;;;;;;23.30;21.93;;;16.80;1.00;;;;;;4866606;29;20480;-80
2023/08/29 09:44:03;;;;;;;24.10;22.70;;;16.90;99.90;;;;;;4866388;29;20481;-80
2023/08/29 09:46:42;;;;;;;22.00;21.00;;;16.90;99.90;;;;;;4877771;29;20793;-81
2023/08/29 09:49:14;;;;;;;22.47;21.37;;;16.90;99.90;;;;;;4873330;29;20565;-82
2023/08/29 09:51:51;;;;;;;22.77;21.50;;;16.90;99.90;;;;;;4872335;29;20495;-79
2023/08/29 09:54:34;;;;;;;23.80;22.50;;;17.00;99.90;;;;;;4870649;29;20458;-80
2023/08/29 09:57:16;;;;;;;23.33;22.13;;;17.00;99.90;;;;;;4873787;29;20454;-80
2023/08/29 10:00:00;;;;;;;24.00;22.63;;;17.00;99.90;;;;;;4878069;29;20507;-81
2023/08/29 10:02:58;;;;;;;22.80;21.73;;;16.90;1.00;;;;;;4870229;29;20492;-80
2023/08/29 10:05:38;;;;;;;23.00;21.90;;;16.90;1.00;;;;;;4872042;29;20467;-80
2023/08/29 10:08:35;;;;;;;22.20;21.10;;;17.00;1.00;;;;;;4871101;29;20456;-80
2023/08/29 10:11:15;;;;;;;23.10;22.00;;;17.10;99.90;;;;;;4872879;29;20521;-80
2023/08/29 10:14:01;;;;;;;23.23;22.07;;;17.20;43.00;;;;;;4872906;29;20569;-78
2023/08/29 10:16:58;;;;;;;23.13;21.73;;;17.20;1.00;;;;;;4866256;29;21064;-80
2023/08/29 10:19:46;;;;;;;22.60;21.50;;;17.20;1.00;;;;;;4868733;29;21253;-81
2023/08/29 10:22:36;;;;;;;22.10;21.00;;;17.10;1.00;;;;;;4862690;29;21354;-80
2023/08/29 10:25:20;;;;;;;21.43;20.43;;;17.20;99.90;;;;;;4867496;29;20219;-81
2023/08/29 10:28:12;;;;;;;22.40;21.30;;;17.30;1.00;;;;;;4865144;29;20459;-80
2023/08/29 10:31:00;;;;;;;22.30;21.13;;;17.30;1.00;;;;;;4877496;29;21474;-80
2023/08/29 10:33:37;;;;;;;21.58;20.58;;;17.20;90.60;;;;;;4863731;29;20460;-80
2023/08/29 10:36:17;;;;;;;22.98;21.88;;;17.20;1.00;;;;;;4866160;29;20203;-80
2023/08/29 10:38:49;;;;;;;22.07;20.87;;;17.20;99.90;;;;;;4865399;29;20737;-80
2023/08/29 10:41:55;;;;;;;23.17;21.97;;;17.10;1.00;;;;;;4864369;29;20573;-81
2023/08/29 10:45:00;;;;;;;23.07;21.97;;;17.10;99.90;;;;;;4862826;29;20530;-80
2023/08/29 10:47:53;;;;;;;22.52;21.42;;;17.10;1.00;;;;;;4862232;29;20466;-85
2023/08/29 10:50:49;;;;;;;22.60;21.50;;;17.10;99.90;;;;;;4860579;29;20218;-84
2023/08/29 10:54:15;;;;;;;22.77;21.57;;;17.10;40.50;;;;;;4867995;29;20455;-85
2023/08/29 10:57:42;;;;;;;24.15;22.75;;;17.10;99.90;;;;;;4865697;29;20974;-84
2023/08/29 11:00:59;;;;;;;24.30;23.10;;;17.10;1.00;;;;;;4848357;29;20213;-84
2023/08/29 11:03:52;;;;;;;24.17;22.90;;;17.00;99.90;;;;;;4869458;29;20465;-84
2023/08/29 11:07:40;;;;;;;24.53;23.23;;;17.10;1.00;;;;;;4868217;29;20543;-85
2023/08/29 11:10:25;;;;;;;24.47;23.27;;;17.00;99.90;;;;;;4868137;29;20525;-83
2023/08/29 11:13:16;;;;;;;24.50;23.17;;;17.10;99.90;;;;;;4869203;29;20487;-83
2023/08/29 11:16:16;;;;;;;25.83;24.33;;;17.20;1.00;;;;;;4867696;29;20496;-84
2023/08/29 11:19:12;;;;;;;24.20;22.90;;;17.10;99.90;;;;;;4867058;29;20474;-85
2023/08/29 11:21:53;;;;;;;24.60;23.10;;;17.10;99.90;;;;;;4872093;29;20492;-85
2023/08/29 11:24:25;;;;;;;23.80;22.60;;;17.20;2.50;;;;;;4870440;29;20485;-85
2023/08/29 11:27:28;;;;;;;24.33;23.03;;;17.20;99.90;;;;;;4876704;29;20474;-84
2023/08/29 11:30:11;;;;;;;24.48;23.15;;;17.20;99.90;;;;;;4873957;29;20467;-84
2023/08/29 11:33:05;;;;;;;24.30;23.10;;;17.10;1.00;;;;;;4871300;29;20237;-84
2023/08/29 11:35:47;;;;;;;25.37;23.90;;;17.20;4.10;;;;;;4870673;29;20496;-84
2023/08/29 11:38:31;;;;;;;25.67;24.27;;;17.20;82.10;;;;;;4872353;29;21000;-85
2023/08/29 11:41:16;;;;;;;25.70;24.30;;;17.30;1.00;;;;;;4873139;29;20473;-85
2023/08/29 11:44:24;;;;;;;24.00;22.67;;;17.30;1.00;;;;;;4869874;29;20774;-84
2023/08/29 11:47:46;;;;;;;23.80;22.50;;;17.40;99.90;;;;;;4871537;29;20457;-85
2023/08/29 11:50:37;;;;;;;23.40;22.20;;;17.40;1.00;;;;;;4872033;29;20459;-84
2023/08/29 11:53:31;;;;;;;23.83;22.60;;;17.50;99.90;;;;;;4873088;29;20811;-84
2023/08/29 11:56:17;;;;;;;23.60;22.50;;;17.40;1.00;;;;;;4871608;29;20570;-84
2023/08/29 11:59:01;;;;;;;24.00;22.60;;;17.40;17.60;;;;;;4872721;29;21713;-84
2023/08/29 12:01:40;;;;;;;25.27;23.87;;;17.50;99.90;;;;;;4870493;29;20990;-85
2023/08/29 12:04:27;;;;;;;23.67;22.58;;;17.40;99.90;;;;;;4866460;29;20493;-84
2023/08/29 12:07:17;;;;;;;25.30;23.70;;;17.50;1.00;;;;;;4868827;29;20244;-85
2023/08/29 12:09:55;;;;;;;25.23;23.53;;;17.50;43.10;;;;;;4871757;29;20465;-83
2023/08/29 12:12:45;;;;;;;23.70;22.50;;;17.60;1.00;;;;;;4870607;29;20487;-85
2023/08/29 12:15:21;;;;;;;22.90;21.43;;;17.60;1.00;;;;;;4874357;29;20441;-85
2023/08/29 12:18:35;;;;;;;25.67;24.37;;;17.60;1.00;;;;;;4870389;29;20463;-85
2023/08/29 12:21:32;;;;;;;23.23;22.00;;;17.50;1.00;;;;;;4870098;29;20518;-85
2023/08/29 12:24:17;;;;;;;22.95;21.75;;;17.50;1.00;;;;;;4866326;29;20471;-85
2023/08/29 12:27:20;;;;;;;24.10;22.80;;;17.50;99.90;;;;;;4869157;29;20224;-84
2023/08/29 12:30:01;;;;;;;25.37;23.90;;;17.50;1.00;;;;;;4866119;29;20457;-85
2023/08/29 12:35:38;;;;;;;24.60;22.97;;;17.40;99.90;;;;;;4870158;29;20748;-86
2023/08/29 12:38:44;;;;;;;23.80;22.53;;;17.40;99.90;;;;;;4883374;29;20478;-85
2023/08/29 12:41:22;;;;;;;23.23;22.10;;;17.40;99.90;;;;;;4867035;29;20515;-84
2023/08/29 12:47:13;;;;;;;24.70;23.40;;;17.40;1.00;;;;;;4871995;29;20470;-85
2023/08/29 12:49:54;;;;;;;24.03;22.67;;;17.50;99.90;;;;;;4867771;29;20480;-83
2023/08/29 12:52:43;;;;;;;23.40;22.20;;;17.50;99.90;;;;;;4867311;29;20965;-85
2023/08/29 12:55:20;;;;;;;24.47;23.27;;;17.50;99.90;;;;;;4874998;29;20466;-84
2023/08/29 12:57:56;;;;;;;24.70;23.30;;;17.40;99.90;;;;;;4873202;29;20476;-85
2023/08/29 13:00:42;;;;;;;25.67;24.17;;;17.40;43.10;;;;;;4870496;29;20976;-84
2023/08/29 13:03:25;;;;;;;24.33;23.10;;;17.40;1.00;;;;;;4876128;29;20555;-84
2023/08/29 13:06:14;;;;;;;26.40;24.87;;;17.40;1.00;;;;;;4870409;29;20488;-85
2023/08/29 13:08:49;;;;;;;25.53;24.13;;;17.40;1.00;;;;;;4869920;29;20469;-84
2023/08/29 13:11:38;;;;;;;24.43;23.23;;;17.40;1.00;;;;;;4866750;29;20484;-85
2023/08/29 13:14:40;;;;;;;23.80;22.30;;;17.30;99.90;;;;;;4867830;29;20524;-83
2023/08/29 13:17:11;;;;;;;22.40;21.33;;;17.40;1.00;;;;;;4870403;29;20587;-84
2023/08/29 13:19:50;;;;;;;20.90;20.00;;;17.30;99.90;;;;;;4869782;29;20470;-85
2023/08/29 13:22:30;;;;;;;20.90;20.00;;;17.30;1.00;;;;;;4868629;29;20532;-83
2023/08/29 13:25:18;;;;;;;21.63;20.73;;;17.30;1.00;;;;;;4867903;29;20591;-83
2023/08/29 13:27:57;;;;;;;22.23;21.03;;;17.30;99.90;;;;;;4866277;29;20471;-84
2023/08/29 13:30:32;;;;;;;22.67;21.58;;;17.30;1.00;;;;;;4866568;29;20464;-83
2023/08/29 13:33:15;;;;;;;22.80;21.70;;;17.30;27.60;;;;;;4867888;29;20218;-84
2023/08/29 13:35:57;;;;;;;21.27;20.37;;;17.30;99.90;;;;;;4871619;29;20477;-82
2023/08/29 13:38:48;;;;;;;21.90;20.90;;;17.30;99.90;;;;;;4868216;29;20482;-83
2023/08/29 13:41:29;;;;;;;22.67;21.57;;;17.40;61.90;;;;;;4869425;29;20490;-83
2023/08/29 13:44:23;;;;;;;22.67;21.10;;;17.40;99.90;;;;;;4872072;29;20459;-83
2023/08/29 13:47:07;;;;;;;22.50;21.55;;;17.50;1.00;;;;;;4870375;29;20479;-86
2023/08/29 13:49:43;;;;;;;21.77;20.80;;;17.40;99.90;;;;;;4869844;29;20268;-82
2023/08/29 13:52:23;;;;;;;22.47;21.37;;;17.50;1.00;;;;;;4869164;29;20501;-85
2023/08/29 13:55:09;;;;;;;22.63;21.63;;;17.50;77.60;;;;;;4866074;29;20467;-82
2023/08/29 13:57:52;;;;;;;22.77;21.77;;;17.60;99.90;;;;;;4867551;29;20473;-83
2023/08/29 14:00:28;;;;;;;22.13;21.23;;;17.60;99.90;;;;;;4865455;29;20586;-83
2023/08/29 14:03:27;;;;;;;22.40;21.30;;;17.60;99.90;;;;;;4865372;29;21067;-83
2023/08/29 14:06:23;;;;;;;22.57;21.47;;;17.60;1.00;;;;;;4869920;29;20486;-84
2023/08/29 14:09:20;;;;;;;23.43;22.23;;;17.60;1.00;;;;;;4866833;29;20454;-84
2023/08/29 14:12:15;;;;;;;23.03;21.93;;;17.60;1.00;;;;;;4874082;29;20538;-85
2023/08/29 14:15:00;;;;;;;22.07;21.17;;;17.60;1.00;;;;;;4875989;29;20502;-85
2023/08/29 14:17:49;;;;;;;23.50;22.40;;;17.60;99.90;;;;;;4874037;29;20468;-84
2023/08/29 14:20:26;;;;;;;24.50;23.30;;;17.70;99.90;;;;;;4868486;29;20208;-84